Index of /download

[ICO]NameLast modifiedSizeDescription

[DIR]Parent Directory  -  
[   ]01JUKNIS_PKM_palingakhir03062015.pdf16-Jun-2015 15:25 1.2M 
[   ]01_BantuanPenyelenggaraanUjiKompetensi-2016.pdf05-Apr-2016 10:13 5.1M 
[   ]0102131438LAMP-HSL-PK-LKP-2011_tahap3.pdf01-Feb-2013 07:38 98K 
[   ]0102131438SK_Penetapan_PK-LKP_2011Thp3.pdf01-Feb-2013 07:38 71K 
[   ]0107101232Lampiran_SK_KWD_2010.pdf08-Apr-2011 01:51 58K 
[   ]0107101232Lampiran_SK_KWK_2010.pdf08-Apr-2011 01:51 36K 
[   ]0107101233Lampiran_SK_PKH_2010.pdf08-Apr-2011 01:51 74K 
[   ]0111101247Hasil_Penilaian_Kinerja_wil_timur_2010.pdf08-Apr-2011 01:51 177K 
[   ]0111101951RSKKNI_Bahasa_Mandarin_untuk_PLRT_final_prakovensi.pdf08-Apr-2011 01:51 233K 
[   ]0111101953RSKKNI_PASTRY_BAKERY_untuk_prakonvensi.pdf08-Apr-2011 01:51 323K 
[   ]02JUKNIS_PKH_palingakhir03062015.pdf16-Jun-2015 15:22 1.6M 
[   ]0206091616EFSD untuk Program Desa Vokasi.pdf08-Apr-2011 01:51 581K 
[   ]0206101219BUKU_1 _PANDUAN_PELATIHAN_KEWIRAUSAHAAN.pdf08-Apr-2011 01:51 387K 
[   ]0206101220BUKU_2_MODUL_1_MEMBANGUN_JIWA_KWU.pdf08-Apr-2011 01:51 477K 
[   ]0206101221BUKU_3_MODUL_2_KONSEP_DASAR_KEWIRAUSAHAAN.pdf08-Apr-2011 01:51 378K 
[   ]0206101235BUKU_4_MODUL_3_MANAJEMEN_USAHA_KECIL.pdf08-Apr-2011 01:51 623K 
[   ]0206101237BUKU_5_MODUL_4_LEGALITAS_BENTUK_PERUSAHAAN.pdf08-Apr-2011 01:51 342K 
[   ]0206101237BUKU_6_MODUL_5_PERENCANAAN_USAHA.pdf08-Apr-2011 01:51 579K 
[   ]0206101238BUKU_7_MODUL_6_KUNJUNGAN_LAP_DAN_PRAKTIK_BISNIS.pdf08-Apr-2011 01:51 300K 
[   ]0207142209JUKNIS_BANTUAN_APRESIASI.pdf02-Jul-2014 15:09 749K 
[   ]03_BantuanSosialisasiPenguatanKelembagaanTUK2016.pdf05-Apr-2016 10:21 5.7M 
[   ]0303101441Draft_Pedoman_Lomba_Peserta_Didik_Kursus_2010.pdf08-Apr-2011 01:51 333K 
[   ]030610143001_JUKNIS PKM _layout_-rev1-H.pdf08-Apr-2011 01:51 880K 
[   ]030610143105_Kurikulum PKM _layout_-rev1-H.pdf08-Apr-2011 01:51 388K 
[   ]0307140936TataCaraLulusan.pdf03-Jul-2014 02:36 221K 
[   ]0402160945Lamp_SK_PK_LKP_2015.pdf04-Feb-2016 02:45 324K 
[   ]0402160946SK_PK_LKP_2015.pdf04-Feb-2016 02:46 51K 
[   ]0408160831LAMPIRAN_PERDIRJEN_PIP_TAHUN_2016_SALINAN_(1).pdf04-Aug-2016 01:31 764K 
[   ]0502131658SKKNIBArabfull.pdf05-Feb-2013 09:58 594K 
[   ]0502131659SKKNIBmandarinFull.pdf05-Feb-2013 09:59 636K 
[   ]0502131700SKKNIbungakerin_full.pdf05-Feb-2013 10:00 626K 
[   ]0502131701SKKNIMCFull.pdf05-Feb-2013 10:01 531K 
[   ]0502131702mengemudifull.pdf05-Feb-2013 10:02 396K 
[   ]0502131704SKKNIPastry&Backryfull.pdf05-Feb-2013 10:04 691K 
[   ]0502131706Videoeditingfull.pdf05-Feb-2013 10:06 309K 
[   ]0503101805Draft_Pedoman_Blockgrant_Lomba_Peserta_Didik_Kursus_2010.pdf08-Apr-2011 01:51 337K 
[   ]0507101441KWD_Thp_1.pdf08-Apr-2011 01:51 49K 
[   ]0507101441KWK.pdf08-Apr-2011 01:51 50K 
[   ]0507101442PKH_LKP_THP1.pdf08-Apr-2011 01:51 84K 
[   ]0507101444PKH_LKP_THP2.pdf08-Apr-2011 01:51 53K 
[   ]0508140912DataMagang2012.pdf05-Aug-2014 02:12 664K 
[   ]0508140915DataMagang2013.pdf05-Aug-2014 02:15 2.0M 
[   ]0601140529PEMAGANGAN.pdf05-Jan-2014 22:29 415K 
[   ]0601140530LSK.pdf05-Jan-2014 22:30 303K 
[   ]0601140531PKM.pdf05-Jan-2014 22:31 385K 
[   ]0601140532PKH.pdf05-Jan-2014 22:32 352K 
[   ]0601140532SKKNI.pdf05-Jan-2014 22:32 284K 
[   ]0601140533PENGUJI.pdf05-Jan-2014 22:33 304K 
[   ]0601140534SKL.pdf05-Jan-2014 22:34 321K 
[   ]0601140534TUK.pdf05-Jan-2014 22:34 388K 
[   ]06011407337_KBK.pdf06-Jan-2014 00:33 352K 
[   ]06011407351_DESAVOKASI.pdf06-Jan-2014 00:35 430K 
[   ]06011407352_IZINKURSUS.pdf06-Jan-2014 00:35 293K 
[   ]06011407353_NILEKONLINE .pdf06-Jan-2014 00:35 393K 
[   ]06011407364_NIPUKONLINE.pdf06-Jan-2014 00:36 378K 
[   ]06011407365_PENILAIANKINERJA.pdf06-Jan-2014 00:36 398K 
[   ]06011407386_UJIKOMPETENSI .pdf06-Jan-2014 00:38 404K 
[   ]06021310211SKL_Bahasa_Arab.pdf06-Feb-2013 03:21 107K 
[   ]06021310222SKL_Batra.pdf06-Feb-2013 03:22 137K 
[   ]06021310223SKL_Bordir.pdf06-Feb-2013 03:22 129K 
[   ]06021310234SKL_Humas.pdf06-Feb-2013 03:23 138K 
[   ]06021310245SKL_Bahasa_Mandarin.pdf06-Feb-2013 03:24 160K 
[   ]06021310246SKL_Master_of_Ceremony.pdf06-Feb-2013 03:24 149K 
[   ]06021310257SKL_Mengemudi.pdf06-Feb-2013 03:25 100K 
[   ]06021310258SKL_Pastry_Bakery.pdf06-Feb-2013 03:25 145K 
[   ]06021310259SKL_Sekretaris.pdf06-Feb-2013 03:25 126K 
[   ]060213102610SKL_Sinshe.pdf06-Feb-2013 03:26 113K 
[   ]0602131039SKLAkuntansi.pdf06-Feb-2013 03:39 90K 
[   ]0602131040SKLAkupunktur.pdf06-Feb-2013 03:40 163K 
[   ]0602131040SKLBahasa Inggris.pdf06-Feb-2013 03:40 111K 
[   ]0602131041SKLBahasaJepangUntukHotel.pdf06-Feb-2013 03:41 96K 
[   ]0602131041SKLBroadcasting.pdf06-Feb-2013 03:41 102K 
[   ]0602131042SKLEksporImpor.pdf06-Feb-2013 03:42 126K 
[   ]0602131042SKLHantaran.pdf06-Feb-2013 03:42 102K 
[   ]0602131042SKLJasaUsahaMakanan.pdf06-Feb-2013 03:42 111K 
[   ]0602131043SKLKomputer.pdf06-Feb-2013 03:43 100K 
[   ]0602131043SKLMerangkaiBunga.pdf06-Feb-2013 03:43 129K 
[   ]0602131044SKLMusik.pdf06-Feb-2013 03:44 105K 
[   ]0602131044SKLSPATerapis.pdf06-Feb-2013 03:44 121K 
[   ]0602131044SKLTataBusana.pdf06-Feb-2013 03:44 98K 
[   ]0602131045SKLTKK.pdf06-Feb-2013 03:45 104K 
[   ]0602131045SKLTKR.pdf06-Feb-2013 03:45 99K 
[   ]0602131045SKLTRP.pdf06-Feb-2013 03:45 109K 
[   ]0602131054KBK_TataRiasPengantin_PaesAgeng_Diknas_2009.pdf06-Feb-2013 03:54 874K 
[   ]0602131054KBK_TataRiasPengantin_TanpaPaesAgeng_Diknas_2009.pdf06-Feb-2013 03:54 853K 
[   ]0602131058KBK_TataKecantikanKulit_Diknas_2009.pdf06-Feb-2013 03:58 1.0M 
[   ]0602131058KBK_TataKecantikanRambut_Diknas_2009.pdf06-Feb-2013 03:58 784K 
[   ]0602131059KBK_komputer_Diknas_2009.pdf06-Feb-2013 03:59 680K 
[   ]0602131059KBK_musik_Diknas_2009.pdf06-Feb-2013 03:59 868K 
[   ]0602131100KBK_Bahasa_Jepang_Diknas_2009.pdf06-Feb-2013 04:00 808K 
[   ]0602131101KBK_EksporImpor_Diknas_2009.pdf06-Feb-2013 04:01 884K 
[   ]0602131101KBK_Hantaran_Diknas_2009.pdf06-Feb-2013 04:01 772K 
[   ]0602131102KBK_Menjahit_Pakaian_Diknas_2009.pdf06-Feb-2013 04:02 879K 
[   ]0602131102KBK_Merangkai_Bunga_Diknas_2009.pdf06-Feb-2013 04:02 717K 
[   ]0602131103KBK_TataBoga_Diknas_2009.pdf06-Feb-2013 04:03 845K 
[   ]0602131103KBK_kamerawanTV_Diknas_2009.pdf06-Feb-2013 04:03 754K 
[   ]0602131103KBK_penyiarTV_Diknas_2009.pdf06-Feb-2013 04:03 758K 
[   ]0602131104KBK_Akupunktur_Diknas_2009.pdf06-Feb-2013 04:04 1.6M 
[   ]0602131105KBK_Akuntansi_diknas_2009.pdf06-Feb-2013 04:05 695K 
[   ]0602131105KBK_Bhs_Inggris_Diknas_2009.pdf06-Feb-2013 04:05 955K 
[   ]0604091353Kisi_kisi_Eksplorasi_R&D.pdf08-Apr-2011 01:51 173K 
[   ]0604091354Metode_Penel_Pengemb_Pembelajaran.pdf08-Apr-2011 01:51 70K 
[   ]0604091354materi_kebijakan_ditkursus_th2009.pdf08-Apr-2011 01:51 1.0M 
[   ]0604091355Model_TBM_Ditempat_Umum.pdf08-Apr-2011 01:51 1.6M 
[   ]0604091357Studi_Eksplorasi_R&D.pdf08-Apr-2011 01:51 252K 
[   ]0604091357Validasi_Model_R&D.pdf08-Apr-2011 01:51 355K 
[   ]0604091358Prosedur_Pengembangan_Model.pdf08-Apr-2011 01:51 365K 
[   ]0604091432Kebijakan_Pengembangan_Kelembagaan_Ditbinsuskel.pdf08-Apr-2011 01:51 242K 
[   ]0604091433Pengembangan_Desa_Vokasi(P2PNFI_regional_2).pdf08-Apr-2011 01:51 513K 
[   ]0604091435Uji_Kompetensi.pdf08-Apr-2011 01:51 1.3M 
[   ]0604091454Pembinaan_Organisasi_Mitra_Pemerintah.pdf08-Apr-2011 01:51 820K 
[   ]0604091455Tantangan_SDM_dalam_Usaha_perjalanan_wisata.pdf08-Apr-2011 01:51 144K 
[   ]0604091456Upaya_peningkatan_Produktivitas_tenagakerja_melalui_program_kursus.pdf08-Apr-2011 01:51 2.0M 
[   ]0604101438Pedoman_Bansos_Asosiasi_Profesi_dan_Ormit.pdf08-Apr-2011 01:51 363K 
[   ]0604161138Daftar_Pengajuan_NILEK_6_April_2016.pdf06-Apr-2016 04:38 135K 
[   ]0604161234Juknis_Bantuan_Pembinaan_Organisasi_Mitra_Kursus_dan_Pelatihan_(BP-ORMIT)_Tahun_2016.pdf06-Apr-2016 05:34 432K 
[   ]0604161236Juknis_Peningkatan_Mutu_Manajemen_dan_Pembelajaran_Lembaga_Kursus_dan_Pelatihan_Menuju_Standar_Nasional_Tahun_2016.pdf06-Apr-2016 05:36 450K 
[   ]0604161241Juknis_Penyelenggaraan_Apresiasi_Kompetensi_Peserta_Didik_Kursus_dan_Pelathan_Tingkat_Nasional_Tahun_2016.pdf06-Apr-2016 05:41 565K 
[   ]0604161242Juknis_Penyelenggaraan_Apresiasi_Lembaga_Kursus_dan_Pelatihan_Berprestasi_Tingkat_Nasional_Tahun_2016.pdf06-Apr-2016 05:42 492K 
[   ]0604161250Juknis_Penyelenggaraan_Magang_Peserta_Didik_Kursus_dan_Pelatihan_Pada_Dunia_Usaha_dan_Dunia_Industri_(DUDI)_Tahun_2016.pdf06-Apr-2016 05:50 588K 
[   ]0606151231Lamp SK PK-LKP 2014.pdf06-Jun-2015 05:31 339K 
[   ]0606151233SK Penetapan PK-LKP 2014.pdf06-Jun-2015 05:33 22K 
[   ]0606161757addendum_bantuan_sarpras.pdf23-Jan-2017 10:57 220K 
[   ]0610141417Sambutan Dir Binsuslat - DPP Tiara Kusuma.docx06-Oct-2014 07:17 16K 
[   ]0610141418Sambutan Dir Binsuslat - Cidesco Ind.docx06-Oct-2014 07:18 15K 
[   ]0611152021Perpanjangan_PKH.pdf06-Nov-2015 13:21 418K 
[   ]0701171442MASTER SPLIT 17.xlsx07-Jan-2017 07:42 107K 
[   ]0702141520LAMP_HSL_PK-LKP_2013_Thp_I.pdf07-Feb-2014 08:20 186K 
[   ]0702141520SK_Penetapan_PK-LKP_2013_ThpI.pdf07-Feb-2014 08:20 26K 
[   ]0702141520SK_Penetapan_PK-LKP_2013_ThpII.pdf07-Feb-2014 08:20 26K 
[   ]0705101345Instrumen_Pengambilan_Pengumpulan_Data_LKP_revisi.doc08-Apr-2011 01:51 319K 
[   ]0705141658LAMP_HSL_PK-LKP_2013_Thp_III.pdf07-May-2014 09:58 40K 
[   ]0705141658LAMP_HSL_PK-LKP_2013_Thp_IIRev.pdf07-May-2014 09:58 168K 
[   ]0710101625KWK.pdf08-Apr-2011 01:51 66K 
[   ]0710101625PKH-LKP.pdf08-Apr-2011 01:51 81K 
[   ]0801140948Permendikbud_no_81_tahun_2013.pdf08-Jan-2014 02:48 82K 
[   ]0803161043Daftar_Pengajuan_NILEK_8_Maret_2016.pdf08-Mar-2016 03:43 160K 
[   ]0804101249Pedoman_Bansos_Peningkatan_Kapasistas_TUK 2010.pdf08-Apr-2011 01:51 397K 
[   ]0804101249Pedoman_Bansos_Peningkatan_Kapasitas_LSK.pdf08-Apr-2011 01:51 413K 
[   ]0804101255Pedoman_Beasiswa_Uji_Kompetensi_2010.pdf08-Apr-2011 01:51 363K 
[   ]0807102237KWD.pdf08-Apr-2011 01:51 96K 
[   ]0807102237kwk.pdf08-Apr-2011 01:51 94K 
[   ]0807102238PKH_LKP.pdf08-Apr-2011 01:51 92K 
[   ]0903102108Bahan_Presentasi_Kementerian_Pertanian-GoldenFlower-9-11.pdf08-Apr-2011 01:51 938K 
[   ]0903131153Kuisioner Penilaian Layanan Prima perhalaman-1.doc09-Mar-2013 04:53 57K 
[   ]0909111005Combine_Pemetaan.pdf09-Sep-2011 03:05 1.0M 
[   ]0909111016PilotProject2011.pdf09-Sep-2011 03:16 1.4M 
[   ]1003101030Bahan_Presentasi_Dikmas_PNFI_GoldenFlower_9-11March.pdf08-Apr-2011 01:51 1.5M 
[   ]1003101243Bahan_Presentasi_Kementerian_Negara_BUMN.pdf08-Apr-2011 01:51 1.9M 
[   ]1003101725Daftar_Lembaga_Pengusul_Indovision_Tahun_2010.pdf08-Apr-2011 01:51 133K 
[   ]1004100006Pedoman_BOP_Kursus_Tahun_2010.pdf08-Apr-2011 01:51 428K 
[   ]1004100036Juknis_Penyelenggaraan_KWK_tahun 2010.pdf08-Apr-2011 01:51 432K 
[   ]1004100038Juknis_Penyelenggaraan_KPP_Tahun_2010.pdf08-Apr-2011 01:51 402K 
[   ]1005102243Selendang_Binsus 2010_30sept.pdf08-Apr-2011 01:51 49K 
[   ]1006141220revitalisasi.pdf10-Jun-2014 05:20 1.0M 
[   ]1011092035Paparan_Direktur_Evaluasi_Yogya_10_Nov.pdf08-Apr-2011 01:51 78K 
[   ]1012090906Bahan_Presentasi_DKP.rar08-Apr-2011 01:51 1.2M 
[   ]1012091114Bahan_Presentasi_ILO.pdf08-Apr-2011 01:51 277K 
[   ]1012091510Bahan_Presentasi_Kesra.pdf08-Apr-2011 01:51 825K 
[   ]1012091512Bahan_Presentasi_Depsos.pdf08-Apr-2011 01:51 544K 
[   ]1012092239Materi_Dir.Ditbinsuskel.pdf08-Apr-2011 01:51 303K 
[   ]1104121011juknis_boplkp.pdf11-Apr-2012 03:11 1.9M 
[   ]1105101147Paparan_reformasi_LKP_Dir.Binsuskel_MegaAnggrek.pdf08-Apr-2011 01:51 853K 
[   ]1105101155Pedoman_lomba_Lembaga_Kursus_tahun2010.pdf08-Apr-2011 01:51 488K 
[   ]1105101227Paparan_Penguatan_program_Kursus&Pelatihan_Keterampilan_Kreatif.pdf08-Apr-2011 01:51 234K 
[   ]1105101228Paparan_Program_PKM_Hotel_Mega_Anggrek.pdf08-Apr-2011 01:51 198K 
[   ]1106142213juknisbantuantuk.pdf11-Jun-2014 15:13 600K 
[   ]1106142221juknisbantuantuk.pdf11-Jun-2014 15:21 570K 
[   ]1106142225juknismaster.pdf11-Jun-2014 15:25 503K 
[   ]1106142226juknispengujituk.pdf11-Jun-2014 15:26 561K 
[   ]1106142228juknistuk.pdf11-Jun-2014 15:28 699K 
[   ]1106142236juknisworldskill.pdf11-Jun-2014 15:36 327K 
[   ]1107141014SKPenerimaBGtahap1.pdf11-Jul-2014 03:14 76K 
[   ]1110101611Revisi_DRAFT_SKKNI_Bahasa_Arab_untuk_Prakonvensi.pdf08-Apr-2011 01:51 534K 
[   ]1202100741Paparan_dir.binsuskel_saphir_12_Feb.pptx08-Apr-2011 01:51 1.0M 
[   ]1205141137SK_Penetapan_PK-LKP_2013_Thp_III.pdf12-May-2014 04:37 26K 
[   ]1207101323KWK_THP_1_2010.pdf08-Apr-2011 01:51 41K 
[   ]1207101605Pedoman_Blockgrant_P2K3_Tahun_2010.pdf08-Apr-2011 01:51 404K 
[   ]1210151201Revisi_hasil_penilaian_kinerja_2014.pdf12-Oct-2015 05:01 294K 
[   ]1211091342Draft_SKKNI_Konvensi.pdf08-Apr-2011 01:51 607K 
[   ]1302100649Program_Subdit_Mutu_2010.ppt08-Apr-2011 01:51 1.4M 
[   ]1302100653Program_Subdit_Kemitraan_2010.ppt08-Apr-2011 01:51 429K 
[   ]1302100656Form_Proposal_Blockgrant_KWK.doc08-Apr-2011 01:51 114K 
[   ]1302100658Form_Proposal_Blockgrant_KWD.doc08-Apr-2011 01:51 116K 
[   ]1302100659Form_Proposal_Blockgrant_KPP.doc08-Apr-2011 01:51 97K 
[   ]1302100659Form_Proposal_Blockgrant_KWD_tertinggal.doc08-Apr-2011 01:51 98K 
[   ]1302100707Form_Proposal_Blockgrant_PKH_LKP.doc08-Apr-2011 01:51 101K 
[   ]1302100708Form_Proposal_Blockgrant_PKH_UPT.doc08-Apr-2011 01:51 95K 
[   ]1303131248Details - Scholar Track IS.pdf13-Mar-2013 05:48 425K 
[   ]1304091309DRAFT_SKKNI_BAHASA_JEPANG.pdf08-Apr-2011 01:51 533K 
[   ]1308100850SK_KPP_TAHAP_2_WEB.xls08-Apr-2011 01:51 31K 
[   ]1308100850SK_KPP_TAHAP_3_web.pdf08-Apr-2011 01:51 45K 
[   ]1308100851SK_KWD_tahap_1_web.pdf08-Apr-2011 01:51 36K 
[   ]1308100851SK_ORMIT_TAHAP_1..pdf08-Apr-2011 01:51 36K 
[   ]1308100953LAMPIRAN_SK_BLOCKGRANT_JATIM.pdf08-Apr-2011 01:51 107K 
[   ]1312091204Materi_ILO_Saphir_YGY.pdf08-Apr-2011 01:51 277K 
[   ]1401101442Penerima_Anugrah_Widya_Karya_Bhakti_Kursus_2009_Revisi..pdf08-Apr-2011 01:51 45K 
[   ]1402130859PengobatanTradisionalRamuan.pdf14-Feb-2013 01:59 1.7M 
[   ]1402130908BahasaJepanguntukHotel.pdf14-Feb-2013 02:08 1.6M 
[   ]1402130912DesainGrafis.pdf14-Feb-2013 02:12 1.8M 
[   ]1402131300BahasaInggrisKeperawatan.pdf14-Feb-2013 06:00 1.8M 
[   ]1402131303BahasaInggrisuntukPariwisataTataGraha.pdf14-Feb-2013 06:03 1.0M 
[   ]1402131305JenjangProfesiMusik.pdf14-Feb-2013 06:05 1.8M 
[   ]1402131320SKKNIJasaUsahaMakanan.pdf14-Feb-2013 06:20 1.7M 
[   ]1403092244Pembentukan_LSK.pdf08-Apr-2011 01:51 166K 
[   ]1403092244pelatihan_calon_penguji_uji_kompetensi.pdf08-Apr-2011 01:51 207K 
[   ]1403092245pembentukan_TUK.pdf08-Apr-2011 01:51 148K 
[   ]1403092246TOT_master_penguji_uji_kompetensi.pdf08-Apr-2011 01:51 242K 
[   ]1403092246ujikompetensi.pdf08-Apr-2011 01:51 197K 
[   ]1403172207JunksiBantuanPembinaanOrmit2017.pdf14-Mar-2017 15:07 507K 
[   ]1403172208JuknisMagangPesertaDidikKursusdanPelatihan2017.pdf14-Mar-2017 15:08 1.4M 
[   ]1406110750Juknis_lomba_berprestasi.pdf14-Jun-2011 00:50 168K 
[   ]1406161513Daftar_Pengajuan_NILEK_14_Juni_2016.pdf14-Jun-2016 08:13 225K 
[   ]1407151417permendikbud_tahun2015_nomor011.pdf14-Jul-2015 07:17 919K 
[   ]1408151412Kurikulum_Bordir_Jenjang_II.pdf14-Aug-2015 07:12 503K 
[   ]1408151413Kurikulum_Bordir_Jenjang_III.pdf14-Aug-2015 07:13 467K 
[   ]1408151413Kurikulum_Sulam_Jenjang_II.pdf14-Aug-2015 07:13 493K 
[   ]1408151414Kurikulum_Sulam_Jenjang_III.pdf14-Aug-2015 07:14 478K 
[   ]1503131533Details - Scholar Track IS.pdf15-Mar-2013 08:33 425K 
[   ]1504101039Pedoman_Lomba_Peserta_Didik_Kursus_2010.pdf08-Apr-2011 01:51 351K 
[   ]1505101432Pedoman_Widya_Karya_Bhakti_Kursus_Tahun2010.pdf08-Apr-2011 01:51 351K 
[   ]1507151116KBK_Kamerawan_TV_final_paraf.pdf15-Jul-2015 04:16 527K 
[   ]1507151118KBK_Penyiar_TV_final_paraf.pdf15-Jul-2015 04:18 539K 
[   ]1507151119KBK_Video_Editing_final_paraf.pdf15-Jul-2015 04:19 564K 
[   ]1507151120Kurikulum_Baby_Sitter_jenjang2_final_paraf.pdf15-Jul-2015 04:20 516K 
[   ]1507151121Kurikulum_Baby_Sitter_jenjang3_final_paraf.pdf15-Jul-2015 04:21 507K 
[   ]1507151122Kurikulum_Tata_Busana_Final_paraf.pdf15-Jul-2015 04:22 688K 
[   ]1507151125Kurikulum_TKK_final_paraf.pdf15-Jul-2015 04:25 1.3M 
[   ]1507151308Kurikulum_Sinshe_III_berbasis_ KKNI_2015_final_paraf.pdf15-Jul-2015 06:08 884K 
[   ]1511101152Paparan_BUMN.pdf08-Apr-2011 01:51 745K 
[   ]1511101212CSR_PT_Sucofindo.pdf08-Apr-2011 01:51 1.6M 
[   ]1512161514SKdanVAPIPPeriode1Tahap9Tahun 2016.pdf15-Dec-2016 08:14 943K 
[   ]1512161515SKdanVAPIPPeriode3Tahap15Tahun2016.pdf15-Dec-2016 08:15 1.1M 
[   ]1606101251LAMP_SK_KWD_Pusat.pdf08-Apr-2011 01:51 37K 
[   ]1606101258CSR_Diknas_Indovision.pdf08-Apr-2011 01:51 428K 
[   ]1606101309SK_PENETAPAN_PKH_Gorontalo.pdf08-Apr-2011 01:51 1.1M 
[   ]1606101329MAKALAH_PNFI_PROGRAM_TV_PENDIDIKAN.pdf08-Apr-2011 01:51 900K 
[   ]1606101420Paparan_untuk_bpkb_direktur kursus-hotel pitagiri.pdf08-Apr-2011 01:51 192K 
[   ]1607121525Addendum_Revit_SKB_revisi.pdf16-Jul-2012 08:25 250K 
[   ]1608101410pkh_lkp_Thp2.pdf08-Apr-2011 01:51 38K 
[   ]1612092157Hasil_Penilaian_KinerjaLembagaKursus.pdf08-Apr-2011 01:51 427K 
[   ]1803131522Details - Scholar Track IS.pdf18-Mar-2013 08:22 425K 
[   ]1805101324Daftar_TUK _issued_18_Mei_2010.pdf08-Apr-2011 01:51 84K 
[   ]1805162123NILEKapril.pdf18-May-2016 14:23 107K 
[   ]1808151537Kurikulum_Sekretaris.pdf18-Aug-2015 08:37 698K 
[   ]1908101157Pedoman_Blockgrant_PKM _REVISI 2.pdf08-Apr-2011 01:51 275K 
[   ]1912161108Addendum_Juknis_PKK_2016.pdf19-Dec-2016 04:08 296K 
[   ]2001152128Permendikbud-No.131-2014-SKL.pdf20-Jan-2015 14:28 626K 
[   ]2001161044Lampiran SK PIP Kursus Tahap 4.pdf20-Jan-2016 03:44 99K 
[   ]2001161045SK PIP KURSUS TAHAP 4 (SMK ANGKATAN 14).pdf20-Jan-2016 03:45 284K 
[   ]2001161047Lampiran SK PIP Kursus Tahap 3.pdf20-Jan-2016 03:47 156K 
[   ]2001161048SK PIP KURSUS TAHAP 3 (SMK ANGKATAN 11).pdf20-Jan-2016 03:48 251K 
[   ]2001161049Lampiran SK PIP Kursus Tahap 2.pdf20-Jan-2016 03:49 657K 
[   ]2001161052SK PIP KURSUS TAHAP 2 (SMK ANGKATAN 8).pdf20-Jan-2016 03:52 786K 
[   ]2001161053Lampiran SK PIP Kursus Tahap 1.pdf20-Jan-2016 03:53 472K 
[   ]2001161056SK PIP KURSUS TAHAP 1 (SMK ANGKATAN 5).pdf20-Jan-2016 03:56 1.1M 
[   ]2001161104Surat Edaran PIP TA 2015.pdf20-Jan-2016 04:04 254K 
[   ]2003131030permendiknas_41_09_pembimbing_kursus.pdf20-Mar-2013 03:30 60K 
[   ]2003131038permendiknas_42_09.pdf20-Mar-2013 03:38 26K 
[   ]2003131040Permendiknas_no_30_Tahun_2005_tentang_BADAN_AKREDITASI_NASIONAL_PENDIDIKAN_NON_FORMAL.pdf20-Mar-2013 03:40 48K 
[   ]2003131042pp_40_tentang_penguji.pdf20-Mar-2013 03:42 68K 
[   ]2004151417Juknis_UJK_palingakhir.pdf20-Apr-2015 07:17 768K 
[   ]2010091000Kewajiban&penghitunganPajak-(DitjenPajak).pdf08-Apr-2011 01:51 1.8M 
[   ]2010091155Pengawasan_penyelenggaraan_pkh_kepemudaan.pdf08-Apr-2011 01:51 777K 
[   ]2103150931Menjahit.pdf21-Mar-2015 02:31 817K 
[   ]2105102320SK_TIM_verifikator_KINERJA.pdf08-Apr-2011 01:51 195K 
[   ]2106101536Lamp_SK_KPP_Pusat.pdf08-Apr-2011 01:51 19K 
[   ]2106101551grand_design_kursus_2_Hotel_ORRI.pdf08-Apr-2011 01:51 88K 
[   ]2107160731adendumapresiasi.pdf21-Jul-2016 00:31 269K 
[   ]2108092133Presentasi_NILEK.pdf08-Apr-2011 01:51 61K 
[   ]2108151802AddendumJuknisPKHPKM2015.pdf21-Aug-2015 11:02 1.2M 
[   ]2110091307Memanisme_Laporan_PKH.pdf08-Apr-2011 01:51 334K 
[   ]2110091308Mekanisme_Pelaporan_keuangan(EkoBudiHartono).pdf08-Apr-2011 01:51 342K 
[   ]2202131332LAMP_HSL_PK-LKP_2012_Thp_I_publik-ok.pdf22-Feb-2013 06:32 163K 
[   ]2202131332SK_Penetapan_PK-LKP_2012_Thp_I.pdf22-Feb-2013 06:32 69K 
[   ]2202131436SK Penetapan PK-LKP 2012 Thp I.docx22-Feb-2013 07:36 46K 
[   ]2204091810Broadcasting&Public-Speaking_interstudi_.pdf08-Apr-2011 01:51 293K 
[   ]2204091811Broadcasting&Public-Speaking_interstudi_2.pdf08-Apr-2011 01:51 290K 
[   ]2204091811Hotel&restaurant(PHRI).pdf08-Apr-2011 01:51 206K 
[   ]2206101452PKH_LKP_PUSAT_TAHAP_1_TH_2010.pdf08-Apr-2011 01:51 52K 
[   ]2206160944Addendumm_juknis_Kursus_2016.pdf22-Jun-2016 02:44 891K 
[   ]2209111129INSTRUMEN_DRAFT_20110620_rev.pdf22-Sep-2011 04:29 210K 
[   ]2210101721Hasil_Penilaian_Kinerja_wil_barat_2010.pdf08-Apr-2011 01:51 231K 
[   ]2211161119SK PIP TAHAP 9 TAHUN 2016.pdf22-Nov-2016 04:19 276K 
[   ]2211161123SK PIP TAHAP 10 TAHUN 2016.pdf22-Nov-2016 04:23 1.0M 
[   ]2211161124SK PIP Tahap 15 Tahun 2016.pdf22-Nov-2016 04:24 631K 
[   ]2306101856DATA_PKH_BG_LKP_JUNI_2010.pdf08-Apr-2011 01:51 71K 
[   ]2306101857DATA_KWD_JUNI_2010.pdf08-Apr-2011 01:51 64K 
[   ]2306101857DATA_KWK_JUNI_2010.pdf08-Apr-2011 01:51 65K 
[   ]2403171120juknis_PIP_2017.pdf24-Mar-2017 04:20 221K 
[   ]2404151331JuknisRevitalisasi2015.pdf24-Apr-2015 06:31 1.8M 
[   ]2405160537ADENDUMLOMBA-PSD-2016.pdf23-May-2016 22:37 323K 
[   ]2408091643draft_RSKKNI_Broadcasting.pdf08-Apr-2011 01:51 469K 
[   ]2408101001format_usulan_beasiswa_uji_kompetensi.pdf08-Apr-2011 01:51 74K 
[   ]2502100946Instrumen_pendataan_LSK_dan_TUK.doc08-Apr-2011 01:51 119K 
[   ]2504141738SKLSENAMLEVEL2.pdf25-Apr-2014 10:38 335K 
[   ]2504141739SKLSENAMLEVEL3.pdf25-Apr-2014 10:39 371K 
[   ]2504141742SKLSENAMLEVEL4.pdf25-Apr-2014 10:42 365K 
[IMG]2511131541organigram_direktorat.jpg25-Nov-2013 08:41 107K 
[   ]2511150823surat_menteri_HGN2015.pdf25-Nov-2015 01:23 249K 
[   ]2602131327KerajinanHantaran.pdf26-Feb-2013 06:27 1.7M 
[   ]2602131349eksim.pdf26-Feb-2013 06:49 814K 
[   ]2602131400akupunktur.pdf26-Feb-2013 07:00 401K 
[   ]2602131405TRPSUNDAPUTERI.pdf26-Feb-2013 07:05 750K 
[   ]2602131413TRPSoloPuteri.pdf26-Feb-2013 07:13 1.1M 
[   ]2602131418TRPBetawi.pdf26-Feb-2013 07:18 931K 
[   ]2602131426TRPGaunPanjang.pdf26-Feb-2013 07:26 599K 
[   ]2602131436TRPYogyaKerudungTanpaPaes.pdf26-Feb-2013 07:36 956K 
[   ]2602131445MerancangModeBusana.pdf26-Feb-2013 07:45 374K 
[   ]2602131450MerangkaiBunga.pdf26-Feb-2013 07:50 608K 
[   ]2603121234Revitalisasi_2012.pdf26-Mar-2012 05:34 1.3M 
[   ]2603121256INSTRUMEN_20120322_FINAL.pdf26-Mar-2012 05:56 593K 
[   ]2603121257petunjuk_pengisian.pdf26-Mar-2012 05:57 276K 
[   ]2603121258Juknis_verifikasi_data.pdf26-Mar-2012 05:58 665K 
[   ]2603122051Pembentukan_LSK.pdf26-Mar-2012 13:51 157K 
[   ]2603122051pembentukan_TUK.pdf26-Mar-2012 13:51 143K 
[   ]2603131411LAMP_HSL_PK-LKP_2012_Thp_II-publik-ok.pdf26-Mar-2013 07:11 209K 
[   ]2603131411SK_Penetapan_PK-LKP_2012_Thp_II.pdf26-Mar-2013 07:11 69K 
[   ]2603131412LAMP_HSL_PK-LKP_2012_Thp_III-publik-ok.pdf26-Mar-2013 07:12 51K 
[   ]2603131412SK_Penetapan_PK-LKP_2012_Thp_III.pdf26-Mar-2013 07:12 69K 
[   ]2604140748SINSHE3.pdf26-Apr-2014 00:48 377K 
[   ]2604140749MCLevel 4.pdf26-Apr-2014 00:49 377K 
[   ]2604140749MClevel3.pdf26-Apr-2014 00:49 372K 
[   ]2604140751MusikPianoPopdanJazzlevel3.pdf26-Apr-2014 00:51 383K 
[   ]2604140752MengemudiPengemudi AngkutanUmum2.pdf26-Apr-2014 00:52 356K 
[   ]2604140754MKBLevel2PengemudiPemula.pdf26-Apr-2014 00:54 343K 
[   ]2604140759MKBlevel2PengemudiProfesiKendaraanPribadi.pdf26-Apr-2014 00:59 349K 
[   ]2604140800Hantaran123.pdf26-Apr-2014 01:00 403K 
[   ]2604140801VideoEditing3.pdf26-Apr-2014 01:01 383K 
[   ]2604140802PenyiarTV3.pdf26-Apr-2014 01:02 350K 
[   ]2604140803MekanikAhli4.pdf26-Apr-2014 01:03 408K 
[   ]2604140804MekanikMadya3.pdf26-Apr-2014 01:04 429K 
[   ]2604140805MekanikPemulaSepedaMotor2.pdf26-Apr-2014 01:05 395K 
[   ]2604140806TataBusana23.pdf26-Apr-2014 01:06 385K 
[   ]2604140809BORDIR2.pdf26-Apr-2014 01:09 302K 
[   ]2604140809BORDIR3.pdf26-Apr-2014 01:09 321K 
[   ]2604140810SULAM2.pdf26-Apr-2014 01:10 298K 
[   ]2604140810SULAM3.pdf26-Apr-2014 01:10 319K 
[   ]2604140813BABYSITTER2.pdf26-Apr-2014 01:13 327K 
[   ]2604140813BungaKeringdanBuatan1234.pdf26-Apr-2014 01:13 405K 
[   ]2604140814BABYSITTER3.pdf26-Apr-2014 01:14 314K 
[   ]2604140816BUNGASEGAR1.pdf26-Apr-2014 01:16 372K 
[   ]2604140816merangkaiBUNGAdandesainfloral2.pdf26-Apr-2014 01:16 373K 
[   ]2604140817merangkaiBUNGAdandesainfloral3.pdf26-Apr-2014 01:17 374K 
[   ]2604140818TEKNIKAKUNTANSI2.pdf26-Apr-2014 01:18 437K 
[   ]2604140819TEKNIKAKUNTANSI3.pdf26-Apr-2014 01:19 435K 
[   ]2604140819TEKNIKAKUNTANSI4.pdf26-Apr-2014 01:19 460K 
[   ]2604140819TEKNIKAKUNTANSI5.pdf26-Apr-2014 01:19 438K 
[   ]2604140821SEKRETARIS2.pdf26-Apr-2014 01:21 379K 
[   ]2604140827SEKRETARIS3.pdf26-Apr-2014 01:27 354K 
[   ]2604140828pijatrefleksi2.pdf26-Apr-2014 01:28 279K 
[   ]2604140828pijatrefleksi3.pdf26-Apr-2014 01:28 299K 
[   ]2604140829pijatrefleksi4.pdf26-Apr-2014 01:29 303K 
[   ]2604140831Perpajakan3(Pajak Daerah).pdf26-Apr-2014 01:31 359K 
[   ]2604140832Perpajakan3(PPh potput).pdf26-Apr-2014 01:32 357K 
[   ]2604140833Perpajakan4(PPh 21).pdf26-Apr-2014 01:33 362K 
[   ]2604140834Perpajakan4(PPh Orang Pribadi).pdf26-Apr-2014 01:34 364K 
[   ]2604140835Perpajakan4(PPNdanPPnBM).pdf26-Apr-2014 01:35 369K 
[   ]2604140836Perpajakan5(Kepabeanan).pdf26-Apr-2014 01:36 387K 
[   ]2604140837Perpajakan5(PPh26).pdf26-Apr-2014 01:37 367K 
[   ]2604140838Perpajakan5(PPhBadanDalamNegeriJasadanPerdagangan).pdf26-Apr-2014 01:38 378K 
[   ]2604140840Perpajakan5(PPhBadanDalamNegeriManufaktur).pdf26-Apr-2014 01:40 377K 
[   ]2604140911JUKNIS_PENYELARASAN_25April.pdf26-Apr-2014 02:11 1.2M 
[   ]2606140856JUKNIS_bop.pdf26-Jun-2014 01:56 817K 
[   ]2606140857JUKNIS_magang2014.pdf26-Jun-2014 01:57 741K 
[   ]2606140903JUKNIS_apresiasi2014.pdf26-Jun-2014 02:03 1.1M 
[   ]2609111151INSTRUMEN_ALUMNI_rev.pdf26-Sep-2011 04:51 176K 
[   ]2609161247Permendikbud_Tahun2016_Nomor026.pdf26-Sep-2016 05:47 126K 
[   ]2609161249Permendikbud_Tahun2016_Nomor026_Lampiran.pdf26-Sep-2016 05:49 765K 
[   ]2610151240PerubahanJuknisBOPORMIT2015.pdf26-Oct-2015 05:40 585K 
[   ]2704101407Modul_1_Diklat_Manajemen_Kursus.pdf08-Apr-2011 01:51 393K 
[   ]2704101408Modul_2 _Diklat_Manajemen_Kursus.pdf08-Apr-2011 01:51 470K 
[   ]2704101410Modul_3_Diklat_Manajemen_Kursus.pdf08-Apr-2011 01:51 463K 
[   ]2704101411Modul_4_Diklat_Manajemen_Kursus.pdf08-Apr-2011 01:51 387K 
[   ]2704101411Modul_5_Diklat_Manajemen_Kursus.pdf08-Apr-2011 01:51 353K 
[   ]2705151131Masukan usulan Rancangan Undang-undang Sisdiknas.pdf27-May-2015 04:31 104K 
[   ]2706141123JUKNIS_ormit2014.pdf27-Jun-2014 04:23 712K 
[   ]2802130942KerajinanHantaran.pdf28-Feb-2013 02:42 1.7M 
[   ]2802130946KerajinanHantaran.pdf28-Feb-2013 02:46 1.7M 
[   ]2802130947KerajinanHantaran.pdf28-Feb-2013 02:47 1.7M 
[   ]2804100841buku_tentang_kursus_0k.pdf08-Apr-2011 01:51 864K 
[   ]2804102130Paparan_Kebijakan_Perijinan_LKP_Online_HotelMustikaYogya.pdf08-Apr-2011 01:51 782K 
[IMG]2804132018Lampiransuratpengumuman.jpeg28-Apr-2013 13:18 103K 
[IMG]2804132018PengumumanrevisiJuknisRevitalisasi.jpeg28-Apr-2013 13:18 75K 
[   ]2806110809Poster_BTI.pdf28-Jun-2011 01:09 1.8M 
[   ]2806110810brosur_web.pdf28-Jun-2011 01:10 597K 
[   ]2808161941Daftar_Pengajuan_NILEK_20_Agustus_2016.pdf28-Aug-2016 12:41 227K 
[   ]2808162008SKL_Animasi_jenjang_II_III_dan_IV.pdf28-Aug-2016 13:08 614K 
[   ]2808162009SKL_Bahasa_Jepang_jenjang_III.pdf28-Aug-2016 13:09 903K 
[   ]2808162011SKL_Desain_Grafis_jenjang_II.pdf28-Aug-2016 13:11 465K 
[   ]2808162011SKL_Desain_Grafis_jenjang_III.pdf28-Aug-2016 13:11 466K 
[   ]2808162012SKL_Ekspor_Impor_jenjang_II.pdf28-Aug-2016 13:12 582K 
[   ]2808162013SKL_Ekspor_Impor_jenjang_III.pdf28-Aug-2016 13:13 697K 
[   ]2808162014SKL_Ekspor_Impor_jenjang_IV.pdf28-Aug-2016 13:14 700K 
[   ]2808162015SKL_Ekspor_Impor_jenjang_V.pdf28-Aug-2016 13:15 670K 
[   ]2808162015SKL_Elektronika_Dasar_jenjang_III.pdf28-Aug-2016 13:15 478K 
[   ]2808162016SKL_Fotografi_jenjang_III.pdf28-Aug-2016 13:16 521K 
[   ]2808162017SKL_Fotografi_jenjang_V.pdf28-Aug-2016 13:17 521K 
[   ]2808162018SKL_Housekeeping_jenjang_II.pdf28-Aug-2016 13:18 874K 
[   ]2808162018SKL_Jaringan_Komputer_jenjang_III.pdf28-Aug-2016 13:18 420K 
[   ]2808162019SKL_KAMERAWAN_TV_jenjang_III.pdf28-Aug-2016 13:19 577K 
[   ]2808162020SKL_Kecantikan_Kulit_jenjang_II_III_dan_IV.pdf28-Aug-2016 13:20 862K 
[   ]2808162020SKL_Pekarya_Kesehatan_jenjang_III.pdf28-Aug-2016 13:20 421K 
[   ]2808162021SKL_SPA_jenjang_II.pdf28-Aug-2016 13:21 640K 
[   ]2808162023SKL_SPA_jenjang_III.pdf28-Aug-2016 13:23 637K 
[   ]2808162023SKL_SPA_jenjang_IV.pdf28-Aug-2016 13:23 630K 
[   ]2808162024SKL_Tata_Kecantikan_Rambut_jenjang_II_III_dan_IV.pdf28-Aug-2016 13:24 734K 
[   ]2808162025SKL_Tata_Rias_Pengantin_jenjang_I.pdf28-Aug-2016 13:25 548K 
[   ]2808162025SKL_Tata_Rias_Pengantin_jenjang_II.pdf28-Aug-2016 13:25 544K 
[   ]2808162026SKL_Teknik_Kendaraan_Ringan_Jenjang_II.pdf28-Aug-2016 13:26 552K 
[   ]2808162031SKL_Teknik_Kendaraan_Ringan_Jenjang_III.pdf28-Aug-2016 13:31 567K 
[   ]2808162032SKL_Teknik_Kendaraan_Ringan_Jenjang_IV.pdf28-Aug-2016 13:32 579K 
[   ]2808162036SKL_Akupuntur_jenjang_III.pdf28-Aug-2016 13:36 1.5M 
[   ]2808162055Kurikulum_Animasi_jenjang_II_III_dan_IV.pdf28-Aug-2016 13:55 536K 
[   ]2808162057Kurikulum_Desain_Grafis_jenjang_II_dan_III.pdf28-Aug-2016 13:57 782K 
[   ]2808162057Kurikulum_Elektronika_jenjang_III.pdf28-Aug-2016 13:57 715K 
[   ]2808162059Kurikulum_Fotografi_jenjang_V.pdf28-Aug-2016 13:59 655K 
[   ]2808162100Kurikulum_Jaringan_Komputer_jenjang_III.pdf28-Aug-2016 14:00 601K 
[   ]2808162101Kurikulum_MC_Master_Of_Ceremony_jenjang_III.pdf28-Aug-2016 14:01 562K 
[   ]2808162102Kurikulum_Mekanik_Pemula_Sepeda_Motor_jenjang_II.pdf28-Aug-2016 14:02 835K 
[   ]2808162103Kurikulum_Pastry_&_Bakery_jenjang_III.pdf28-Aug-2016 14:03 1.3M 
[   ]2808162103Kurikulum_mengemudi_pemula_jenjang_II.pdf28-Aug-2016 14:03 644K 
[   ]2808162104Kurikulum_Pekarya_Kesehatan_jenjang_II.pdf28-Aug-2016 14:04 542K 
[   ]2808162105Kurikulum_Pijat_Refleksi_Jenjang_II.pdf28-Aug-2016 14:05 314K 
[   ]2808162106Kurikulum_Pijat_Refleksi_Jenjang_III.pdf28-Aug-2016 14:06 352K 
[   ]2808162107Kurikulum_Pijat_Refleksi_Jenjang_IV.pdf28-Aug-2016 14:07 536K 
[   ]2808162107Kurikulum_Senam_jenjang_II.pdf28-Aug-2016 14:07 427K 
[   ]2808162108Kurikulum_Senam_jenjang_III.pdf28-Aug-2016 14:08 486K 
[   ]2907101524Kalbar.pdf08-Apr-2011 01:51 109K 
[   ]3003170932Surat-Pengisian-Instrumen-Uji-Publik.pdf30-Mar-2017 02:32 339K 
[   ]3003170933Instrumen-Uji-Publik-Standar-Sarpras.pdf30-Mar-2017 02:33 413K 
[   ]3003170937Draf-Standar-Sapras-Kursus&Pelatihan_Tari_Tradisional_hasil-uji-publik.pdf30-Mar-2017 02:37 385K 
[   ]3003170938Draf-Standar-SaPras-Kursus&Pelatihan-CAD-hasil-uji-publik.pdf30-Mar-2017 02:38 452K 
[   ]3003170938Draf-Standar-Sapras-Kursus&Pelatihan-Otomotif-TKR-hasil-uji-publik.pdf30-Mar-2017 02:38 637K 
[   ]3003170939Draf-Standar-Sapras-Kursus&Pelatihan-PLAMBING-hasil-uji-publik.pdf30-Mar-2017 02:39 437K 
[   ]3003170939Draf-Standar-Sapras-Kursus&Pelatihan-Web-Programming-hasil-uji-publik.pdf30-Mar-2017 02:39 362K 
[   ]3003170939Draf-Standar-Sapras-Web-Design-hasil-uji-publik.pdf30-Mar-2017 02:39 363K 
[   ]3003170940DRAF-STANDAR-SARPRAS-BORDIR-SULAM-hasil-uji-publik.pdf30-Mar-2017 02:40 401K 
[   ]3003170940Draf-Standar-Sarpras-Desain-Grafis-hasil-uji-publik.pdf30-Mar-2017 02:40 835K 
[   ]3003170941DRAF-STANDAR-SARPRAS-KURSUS&PELATIHAN-PENDIDIK-PAUD_hasil-uji-publik.pdf30-Mar-2017 02:41 427K 
[   ]3003170941Draf-Standar-Sarpras-Membatik-hasil-uji-publik.pdf30-Mar-2017 02:41 399K 
[   ]3004100953instrumen2010.pdf08-Apr-2011 01:51 799K 
[   ]3004110843B-06a-NON VOKASIONAL-Instrumen Pengambilan-Pengumpulan Data LKP.docx30-Apr-2011 01:43 102K 
[   ]3004110844B-05a-VOKASIONAL-Instrumen Pengambilan-Pengumpulan-Data-LKP.docx30-Apr-2011 01:44 105K 
[   ]3004110845B-05b-VOKASIONAL-Panduan Pengisian Instrumen Pengambilan-Pengumpulan Data LKP.pdf30-Apr-2011 01:45 119K 
[   ]3004110845B-06b-NON VOKASIONAL-Panduan Pengisian Instrumen Pengambilan-Pengumpulan Data LKP.pdf30-Apr-2011 01:45 117K 
[   ]3006090955Microsoft Word - DAFTAR PENERIMA BLOCKGRANT KURSUS TAHUN 2009 TAHAP II SATKER P2PNFI REG. II UNGARAN.pdf08-Apr-2011 01:51 115K 
[   ]3006090955Microsoft Word - DAFTAR PENERIMA BLOCKGRANT KURSUS TAHUN 2009 TAHAP I SATKER P2PNFI REG. II UNGARAN.pdf08-Apr-2011 01:51 153K 
[   ]3007090954Instrumen_Pendataan_Lembaga_Kursus_Tahun_2009.pdf08-Apr-2011 01:51 182K 
[   ]3007091557lampiran_adendum_kepemudaan.pdf08-Apr-2011 01:51 105K 
[   ]3009091020Draft_SKKNI_BhsInggris_for_Tourism.pdf08-Apr-2011 01:51 525K 
[   ]3009150912RalatperubahanJuknisBOP-LKP2015.pdf30-Sep-2015 02:12 1.6M 
[   ]3101130943PeraturanPemerintahNomor19Tahun2005_StandarNasionalPendidikan.pdf31-Jan-2013 02:43 294K 
[   ]3101130944UndangUndangNomor20Tahun2003_Sisdiknas.pdf31-Jan-2013 02:44 112K 
[   ]3101130946UndangUndangNomor14Tahun2008_keterbukaanInformasiPublik.pdf31-Jan-2013 02:46 179K 
[   ]3101130951PeraturanPemerintahNo17Tahun2010PENGELOLAANPENDIDIKAN.pdf31-Jan-2013 02:51 532K 
[   ]3101130954PeraturanPresidenNo8Tahun2012TentangKerangkaKerjaKualifikasiNasionalIndonesia.pdf31-Jan-2013 02:54 75K 
[   ]3101131250Permendiknas_70_2008-tentang-UJI-KOMPETENSI-BAGI-PESERTA-DIDIK-KURSUS-BELAJ-MANDIRI.pdf31-Jan-2013 05:50 27K 
[   ]3101131255PermendiknasNomor36Tahun2010_OTK_Kementerian.pdf31-Jan-2013 05:55 1.0M 
[   ]3101131256PermendiknasNomor66Tahun2010_PengelolaanPendidikanPenggantiPP_17_2010.pdf31-Jan-2013 05:56 78K 
[   ]3108090806Panduan_pengelolaan_NILEK.pdf08-Apr-2011 01:51 76K 
[   ]3108090813Materi_Presentasi_Pembinaan_Lembaga_Kursus(Direktur Binsuskel).pdf08-Apr-2011 01:51 126K 
[   ]3108101022kwd_sumbar.pdf08-Apr-2011 01:51 29K 
[   ]3108101023kwk_sumbar.pdf08-Apr-2011 01:51 21K 
[   ]3108101023pkh_lkp_sumbar.pdf08-Apr-2011 01:51 26K 
[   ]3110121440hasil_PK_tahap1_2011.pdf31-Oct-2012 07:40 284K 
[   ]3110121440hasil_PK_tahap2_2011.pdf31-Oct-2012 07:40 65K 
[   ]3110161424SKPIPTahap9.pdf31-Oct-2016 07:24 1.5M 
[   ]180316112601_BABY SITTER_B5.pdf18-Mar-2016 04:26 1.9M 
[   ]180316112902_BORDIR_B5.pdf18-Mar-2016 04:29 1.3M 
[   ]180316113103_TKK_B5.pdf18-Mar-2016 04:31 1.6M 
[   ]180316113204_TKR_B5.pdf18-Mar-2016 04:32 1.2M 
[   ]180316142707_OTOMOTIF_B5.pdf18-Mar-2016 07:27 1.2M 
[   ]180316142808_PIJAT REFLEKSI_B5.pdf18-Mar-2016 07:28 1.3M 
[   ]180316143009_MERANGKAI_BUNGA_UNTUK_PEMULA_B5.pdf18-Mar-2016 07:30 1.3M 
[   ]180316143110_TATA_BOGA_B5.pdf18-Mar-2016 07:31 1.1M 
[   ]200115220909_SKL_Ekspor_Impor_VII.pdf20-Jan-2015 15:09 354K 
[   ]201106250715Imran.pdf25-Jun-2011 00:15 1.1M 
[   ]201106250723Eko_Yanuari_Anto.pdf25-Jun-2011 00:23 1.3M 
[   ]201106250736Hasri.pdf25-Jun-2011 00:36 493K 
[   ]201106250749Mansye_Fernandus.pdf25-Jun-2011 00:49 921K 
[   ]201106280927Margareth_Adjie.pdf28-Jun-2011 02:27 585K 
[   ]201106280935Naomi_Latumahina.pdf28-Jun-2011 02:35 305K 
[   ]201106280939Srie_Maryati.pdf28-Jun-2011 02:39 947K 
[   ]201106280943Ahmad_Sumari.pdf28-Jun-2011 02:43 1.4M 
[   ]201106280959Dody.pdf28-Jun-2011 02:59 576K 
[   ]201106281003Gusti_Ayu_Nyoman_Puspitawati.pdf28-Jun-2011 03:03 440K 
[   ]201106281009Heny_Suryani.pdf28-Jun-2011 03:09 675K 
[   ]201106281016Herman_Nusleba.pdf28-Jun-2011 03:16 946K 
[   ]201106281021Made_Suarta.pdf28-Jun-2011 03:21 477K 
[   ]201106281028Maria_Afrida.pdf28-Jun-2011 03:28 1.0M 
[   ]201106281043Muknim.pdf28-Jun-2011 03:43 619K 
[   ]201106281103Ni_Ketut_Sulasih.pdf28-Jun-2011 04:03 1.4M 
[   ]201106281110Ni_Nyoman_Ringun.pdf28-Jun-2011 04:10 1.6M 
[   ]201106281114Ni_Putu_Lendriasih.pdf28-Jun-2011 04:14 432K 
[   ]201106281118Ninik Purwiyandari.pdf28-Jun-2011 04:18 512K 
[   ]201106281126Nova.pdf28-Jun-2011 04:26 950K 
[   ]201107181411Agustina.pdf18-Jul-2011 07:11 294K 
[   ]201107181429Hendri.pdf18-Jul-2011 07:29 354K 
[   ]201107181434Mariyati.pdf18-Jul-2011 07:34 389K 
[   ]201107181449Umi_Marlina.pdf18-Jul-2011 07:49 511K 
[   ]201107181453Yoz_Sasmita_Kurniawansyah.pdf18-Jul-2011 07:53 291K 
[   ]201107181454Yoz_Sasmita_Kurniawansyah.pdf18-Jul-2011 07:54 291K 
[   ]201107181507Adriyanto.pdf18-Jul-2011 08:07 899K 
[   ]201107181518Indra_Agam_Amar_M.Hirvansyah.pdf18-Jul-2011 08:18 302K 
[   ]201107181527M_Taufik.pdf18-Jul-2011 08:27 1.3M 
[   ]201107231421Muzdalifa.pdf23-Jul-2011 07:21 1.0M 
[   ]201107231430Selvi.pdf23-Jul-2011 07:30 297K 
[   ]201107231433Stientje_Parengkuan.pdf23-Jul-2011 07:33 304K 
[   ]201107231437Syarief.pdf23-Jul-2011 07:37 485K 
[   ]201107231440Teddy.pdf23-Jul-2011 07:40 1.4M 
[   ]201107231520a_juanda.pdf23-Jul-2011 08:20 241K 
[   ]201107231522abdul_karim.pdf23-Jul-2011 08:22 251K 
[   ]201107231529dina_f.pdf23-Jul-2011 08:29 915K 
[   ]201107231531dita_yuniati.pdf23-Jul-2011 08:31 1.5M 
[   ]201107231548ernawati.pdf23-Jul-2011 08:48 484K 
[   ]201107231551erny_a.pdf23-Jul-2011 08:51 1.0M 
[   ]201107231601johansyah_effendi.pdf23-Jul-2011 09:01 767K 
[   ]201107231602joko_wahyu.pdf23-Jul-2011 09:02 757K 
[   ]201107231606kiki_chandra.pdf23-Jul-2011 09:06 878K 
[   ]201110131712Ami_Ratnawati.pdf13-Oct-2011 10:12 264K 
[   ]201110131717Anwar.pdf13-Oct-2011 10:17 404K 
[   ]201110131722m_arif.pdf13-Oct-2011 10:22 1.9M 
[   ]201110131725Atus_Julian.pdf13-Oct-2011 10:25 2.0M 
[   ]201110131730Aulia_Abdurrahman.pdf13-Oct-2011 10:30 444K 
[   ]201110131730mahfuddin.pdf13-Oct-2011 10:30 241K 
[   ]201110131735Budi_Maryanto.pdf13-Oct-2011 10:35 214K 
[   ]201110131735mariani.pdf13-Oct-2011 10:35 559K 
[   ]201110131742misran.pdf13-Oct-2011 10:42 803K 
[   ]201110131745Cucum.pdf13-Oct-2011 10:45 936K 
[   ]201110131747muji_h.pdf13-Oct-2011 10:47 241K 
[   ]201110131749Danang_Cahyo_Suryono.pdf13-Oct-2011 10:49 446K 
[   ]201110131756Datik_Octaviani.pdf13-Oct-2011 10:56 272K 
[   ]201110131802dede_rohimah.pdf13-Oct-2011 11:02 1.0M 
[   ]201110131822Dias_Wuri.pdf13-Oct-2011 11:22 487K 
[   ]201110131828hasanudin.pdf13-Oct-2011 11:28 452K 
[   ]201110131831oki.pdf13-Oct-2011 11:31 427K 
[   ]201110131834okzi_okmala_dewi.pdf13-Oct-2011 11:34 1.1M 
[   ]201110131837ratika_yani.pdf13-Oct-2011 11:37 564K 
[   ]201110131840Imam_Kurniawan.pdf13-Oct-2011 11:40 482K 
[   ]201110131841ratni.pdf13-Oct-2011 11:41 229K 
[   ]201110131844Imam_Suparno.pdf13-Oct-2011 11:44 491K 
[   ]201110131846renita.pdf13-Oct-2011 11:46 241K 
[   ]201110131848Ipan.pdf13-Oct-2011 11:48 706K 
[   ]201110131849rita_husni_amd.pdf13-Oct-2011 11:49 1.3M 
[   ]201110131852romadhani_sitanggang.pdf13-Oct-2011 11:52 278K 
[   ]201110132136Lia_Mardiana.pdf13-Oct-2011 14:36 264K 
[   ]201110132140Lina_Ulandari.pdf13-Oct-2011 14:40 265K 
[   ]201110132148Nur_Cholik.pdf13-Oct-2011 14:48 539K 
[   ]201110132152Nurliah.pdf13-Oct-2011 14:52 265K 
[   ]201110132157Romli.pdf13-Oct-2011 14:57 516K 
[   ]201110132202Rose Hartini.pdf13-Oct-2011 15:02 397K 
[   ]201110132231Rosmaya.pdf13-Oct-2011 15:31 464K 
[   ]201110132236Suhendar.pdf13-Oct-2011 15:36 1.0M 
[   ]201110132243Suryanto.pdf13-Oct-2011 15:43 1.3M 
[   ]201110132249Tina Sholihah.pdf13-Oct-2011 15:49 936K 
[   ]201110141053Tuwuh Wahyudi.pdf14-Oct-2011 03:53 480K 
[   ]201110141100Umi_Saadah.pdf14-Oct-2011 04:00 275K 
[   ]201110141111Neni_Triana_Nurhayati.pdf14-Oct-2011 04:11 264K 
[   ]201110141531rosmaniah.pdf14-Oct-2011 08:31 1.8M 
[   ]201110141536sari.pdf14-Oct-2011 08:36 233K 
[   ]201110141540sunandar_f.pdf14-Oct-2011 08:40 189K 
[   ]201110141543thabrani.pdf14-Oct-2011 08:43 726K 
[   ]201110141545tri_martono.pdf14-Oct-2011 08:45 553K 
[   ]201110141548tuha_yeni.pdf14-Oct-2011 08:48 1.2M 
[   ]201110141552zulkhairi.pdf14-Oct-2011 08:52 1.3M 
[   ]19061421272014SKpemenanglombaBATIK.pdf19-Jun-2014 14:27 224K 
[   ]19061421272014SKpemenanglombaFASHION.pdf19-Jun-2014 14:27 227K 
[   ]19061421272014SKpemenanglombaFLORISTRY.pdf19-Jun-2014 14:27 224K 
[   ]AKUPUNKTUR_komplit.pdf02-Mar-2015 02:57 30M 
[   ]Akupunktur.pdf20-Jan-2015 15:07 1.6M 
[   ]ApresiasiLKPBerprestasi_2013.pdf18-Apr-2013 10:28 5.5M 
[   ]BOPLKP_2013.pdf18-Apr-2013 10:34 5.6M 
[   ]BansosOrmit_2013.pdf18-Apr-2013 10:32 6.5M 
[   ]Bansos_ApresiasiLKP_2013.pdf18-Apr-2013 10:30 2.8M 
[   ]Bordir.pdf06-Feb-2013 02:41 7.6M 
[   ]Draft_juknis_peningkata_SKB_2016.pdf10-Mar-2016 23:51 384K 
[   ]FixPengobatTradisionalRamuanIndonesia.pdf06-Feb-2013 02:40 5.6M 
[   ]HANTARAN_komplit.pdf02-Mar-2015 03:18 29M 
[   ]Hasil_EK_LKP_2016.pdf07-Jan-2017 10:31 19M 
[   ]HumasFull.pdf06-Feb-2013 02:43 5.2M 
[   ]INFOKURSUS5.pdf18-Mar-2014 09:12 66M 
[   ]INFOKURSUS6.pdf18-Mar-2014 09:14 82M 
[   ]INFOKURSUS10.pdf18-Mar-2014 05:54 61M 
[   ]INFOKURSUS11.pdf18-Mar-2014 06:02 92M 
[   ]INFO KURSUS 12.pdf18-Mar-2014 06:14 71M 
[   ]INFOKURSUS_4.pdf17-Mar-2014 08:20 80M 
[   ]INFO_KURSUS _2.pdf17-Mar-2014 08:05 3.7M 
[   ]INFO_KURSUS_3.pdf17-Mar-2014 08:11 16M 
[   ]JUKNIS_DESI-2014-1.pdf01-Apr-2014 08:27 673K 
[   ]JUKNIS_PIP_2015.pdf05-Jul-2015 06:25 17M 
[   ]JUKNIS_PKH-2014-1.pdf01-Apr-2014 08:27 789K 
[   ]JUKNIS_PKH_palingakhir.pdf15-Apr-2015 04:29 1.0M 
[   ]JUKNIS_PKH_palingakhirsekali.pdf22-Apr-2015 07:05 1.0M 
[   ]JUKNIS_PKM-2014-1.pdf01-Apr-2014 08:27 1.2M 
[   ]JUKNIS_PKM_palingakhir.pdf15-Apr-2015 04:29 1.0M 
[   ]JUKNIS_PKM_palingakhirsekali.pdf22-Apr-2015 07:05 1.0M 
[   ]JasaUsahaMakanan.pdf06-Feb-2013 02:41 5.9M 
[   ]Juknis Bantuan Pembinaan Organisasi Mitra Kursus dan Pelatihan (BP-ORMIT) Tahun 2016.pdf06-Apr-2016 05:27 432K 
[   ]JuknisPKK2017.pdf14-Mar-2017 02:56 657K 
[   ]JuknisPKW2017.pdf14-Mar-2017 02:15 2.5M 
[   ]JuknisPKWU2017.pdf14-Mar-2017 02:15 2.0M 
[   ]Juknis_PKKU&PKWU_2016.pdf18-Mar-2016 13:49 1.6M 
[   ]Juknis_PKK_2016.pdf18-Mar-2016 13:50 1.4M 
[   ]Juknis_PKW_2016.pdf09-Mar-2016 05:15 1.9M 
[   ]Juknis_Peningkatan_Mutu_Manajemen_dan_Pembelajaran_LKP_Menuju_Standar_Nasional_Tahun_2016.pdf06-Apr-2016 05:53 450K 
[   ]Juknis_Penyelenggaraan_Apresiasi_Kompetensi_PD_Kursus_Tingkat_Nasional_Tahun_2016.pdf06-Apr-2016 06:23 565K 
[   ]Juknis_Penyelenggaraan_Apresiasi_LKP_Berprestasi_Tingkat_Nasional_Tahun_2016.pdf06-Apr-2016 06:23 492K 
[   ]Juknis_Penyelenggaraan_Magang_PDPada_DUDITahun_2016.pdf06-Apr-2016 05:55 588K 
[   ]Juknis_Penyelenggaraan_Magang_PD_Pelatihan_Pada_DUDI_Tahun_2016.pdf06-Apr-2016 06:24 588K 
[   ]Juknis_Sarpras_2016.pdf18-Mar-2016 13:50 1.1M 
[   ]Juknis_UJK_2016.pdf09-Mar-2016 05:15 596K 
[   ]Juknis_lomba2.pdf22-May-2012 11:11 5.2M 
[   ]KBKKURSUSMC.pdf06-Feb-2013 02:42 9.6M 
[   ]KBKSekretarisFull.pdf06-Feb-2013 03:08 5.1M 
[   ]KPP2010.pdf08-Apr-2011 01:51 3.3M 
[   ]KWD2010.pdf08-Apr-2011 01:51 4.5M 
[   ]KWDtertinggal2010.pdf08-Apr-2011 01:51 3.6M 
[   ]KWK2010.pdf08-Apr-2011 01:51 4.4M 
[   ]Komponen_Utama_Mesin_Bensin_lengkap.pdf17-Mar-2014 08:35 20M 
[   ]Komposisi_Gambar_lengkap.pdf17-Mar-2014 08:36 22M 
[   ]LKP2010.pdf08-Apr-2011 01:51 4.4M 
[   ]LPR-PKH-FINAL.pdf01-Apr-2013 07:12 6.2M 
[   ]LPR-PKH.pdf01-Apr-2013 07:16 2.1M 
[   ]LPR_DESI.pdf01-Apr-2013 07:18 2.0M 
[   ]LPR_PKM.pdf01-Apr-2013 07:19 2.1M 
[   ]Mengemudi_komplit.pdf02-Mar-2015 03:30 73M 
[   ]Musik_komplit.pdf02-Mar-2015 03:36 41M 
[   ]PNFI2010.pdf08-Apr-2011 01:51 5.6M 
[   ]PP_19_2005.pdf08-Apr-2011 01:51 288K 
[   ]Pemagangan-Final.pdf02-Apr-2013 04:01 4.0M 
[   ]PenataanCahayaTelevisi_komplit.pdf02-Mar-2015 03:58 9.7M 
[   ]PenghargaanPengabdiKursus_2013.pdf18-Apr-2013 10:38 8.3M 
[   ]Pengolahan Bahan Makanan_lengkap.pdf17-Mar-2014 08:38 14M 
[   ]Permendikbud127.pdf02-Feb-2015 08:32 11M 
[   ]SKdanVAPIPPeriode2Tahap10Tahun2016.pdf15-Dec-2016 08:24 2.2M 
[   ]SKdanVAPIPPeriode3Tahap15Tahun2016.pdf15-Dec-2016 08:24 1.1M 
[   ]SKdanVAPIPPeriode4Tahap17PKWdanPKKTahun2016.pdf15-Dec-2016 08:25 3.9M 
[   ]SKdanVAPIPPeriode5Tahap19PKWdanPKKTahun2016.pdf15-Dec-2016 08:25 3.6M 
[   ]SKdanVAPIPPeriode6Tahap20PKWdanPKK2Tahum2016.pdf15-Dec-2016 08:25 3.0M 
[   ]SKdanVAPIPPeriode7Tahap21PKWdanPKKTahum2016.pdf15-Dec-2016 08:25 3.0M 
[   ]SekretarisFull.pdf06-Feb-2013 03:10 5.1M 
[   ]SiapMenjahit_MengenalTekstil_komplit.pdf26-Feb-2015 09:19 135M 
[   ]Sistem Bahan Bakar pd Sepeda Motor_lengkap.pdf17-Mar-2014 08:45 37M 
[   ]Special Event_lengkap.pdf17-Mar-2014 08:43 21M 
[   ]SrieMaryati.pdf25-Jun-2011 01:07 947K 
[   ]TKK_komplit.pdf02-Mar-2015 07:37 77M 
[   ]UU_20_2003.pdf08-Apr-2011 01:51 112K 
[   ]UpdateJuknisPilotProject14062013_2-2finalsekalikali.pdf01-Jul-2013 02:50 1.9M 
[   ]UpdateJuknisPilotProject17062013_2-2.pdf21-Jun-2013 09:52 2.2M 
[   ]apresiasiberprestasi16062015.pdf16-Jun-2015 14:43 2.2M 
[   ]boblkp.pdf11-Apr-2011 15:05 2.7M 
[   ]boplkp16062015.pdf16-Jun-2015 14:43 2.7M 
[   ]bopormit160602015.pdf16-Jun-2015 14:44 3.2M 
[   ]buku_blockgrant.pdf08-Apr-2011 01:51 4.3M 
[   ]daerahtertinggal.pdf08-Apr-2011 01:51 2.3M 
[   ]desi.pdf18-Mar-2013 08:21 8.4M 
[   ]insdatanilek.pdf17-Sep-2014 05:34 593K 
[   ]juknis_bopormit.pdf11-Apr-2012 03:19 3.1M 
[   ]juknis_devo.pdf14-Feb-2012 05:30 4.2M 
[   ]juknis_devo2.pdf17-Feb-2012 07:23 4.2M 
[   ]juknis_moratorium.pdf13-Sep-2011 11:59 2.4M 
[   ]juknis_pemetaan.pdf13-Sep-2011 11:57 2.1M 
[   ]juknis_pemetaan_2012.pdf28-May-2012 10:51 2.7M 
[   ]juknis_peningkata_SKB_2016.pdf18-Mar-2016 13:49 1.1M 
[   ]juknis_pkh.pdf14-Feb-2012 05:29 3.7M 
[   ]juknis_pkm.pdf14-Feb-2012 05:31 4.3M 
[   ]jukniskkk.pdf08-Apr-2011 01:51 2.7M 
[   ]juknislomba.pdf12-Jun-2014 15:35 3.2M 
[   ]juknispkh.pdf08-Apr-2011 01:51 2.9M 
[   ]juknispkm.pdf08-Apr-2011 01:51 2.9M 
[   ]juknisvokasi.pdf08-Apr-2011 01:51 3.1M 
[   ]kbkSinShe.pdf06-Feb-2013 03:18 5.9M 
[   ]kerjasamalkpberprestasi16062015.pdf16-Jun-2015 14:44 3.5M 
[   ]koprasikukm.pdf08-Apr-2011 01:51 3.2M 
[   ]lakip201724jan.pdf17-Mar-2017 02:28 2.4M 
[   ]layoutbg.pdf08-Apr-2011 01:51 2.7M 
[   ]layoutpkh.pdf08-Apr-2011 01:51 3.5M 
[   ]nakertrans.pdf08-Apr-2011 01:51 3.2M 
[   ]ormit2011.pdf04-May-2011 12:22 3.0M 
[   ]pajak_blok.pdf13-Feb-2012 09:44 4.3M 
[   ]perijinan-alamatdinas.doc08-Apr-2011 01:51 909K 
[   ]pkh.pdf28-Feb-2013 02:13 10M 
[   ]pkm.pdf28-Feb-2013 02:13 10M 
[   ]profesi.pdf26-Apr-2011 06:50 6.3M 
[   ]revit.pdf22-Mar-2013 04:04 1.0M 
[   ]revitalisasi.pdf14-Jul-2011 12:34 3.7M 
[   ]stat_kursus_2007.xls08-Apr-2011 01:51 228K 

Apache Server at infokursus.net Port 80